Time;durP1;ratioP1;P1;durP2;ratioP2;P2;SDS_P1;SDS_P2;PMS_P1;PMS_P2;Temp;Humidity;BMP_temperature;BMP_pressure;BME280_temperature;BME280_humidity;BME280_pressure;Samples;Min_cycle;Max_cycle;Signal;HPM_P1;HPM_P2
2021/09/10 00:01:26;;;;;;;8.70;4.70;;;;;;;15.89;57.93;96917.34;114116;1208;25837;-84
2021/09/10 00:04:01;;;;;;;6.20;4.50;;;;;;;15.88;57.81;96922.38;114206;1200;25853;-84
2021/09/10 00:06:32;;;;;;;8.50;4.90;;;;;;;15.84;57.86;96918.70;114218;1200;28921;-84
2021/09/10 00:09:03;;;;;;;9.00;5.40;;;;;;;15.81;57.71;96917.97;114197;1201;29141;-84
2021/09/10 00:11:34;;;;;;;8.70;4.90;;;;;;;15.88;57.71;96918.59;114180;1202;26053;-84
2021/09/10 00:14:05;;;;;;;7.20;4.40;;;;;;;15.88;57.67;96919.98;114185;1202;26917;-83
2021/09/10 00:16:35;;;;;;;8.60;4.80;;;;;;;15.80;57.75;96914.69;114359;1200;26988;-84
2021/09/10 00:19:06;;;;;;;8.10;4.40;;;;;;;15.73;57.71;96913.49;114274;1201;25552;-84
2021/09/10 00:21:38;;;;;;;6.90;4.80;;;;;;;15.74;57.53;96911.34;114160;1207;28214;-83
2021/09/10 00:24:09;;;;;;;8.20;4.90;;;;;;;15.76;57.49;96911.98;114139;1202;34957;-84
2021/09/10 00:26:39;;;;;;;8.10;4.80;;;;;;;15.73;57.34;96917.08;114148;1202;31413;-84
2021/09/10 00:29:10;;;;;;;6.80;4.40;;;;;;;15.72;57.47;96916.52;114224;1203;33319;-83
2021/09/10 00:31:42;;;;;;;8.20;4.80;;;;;;;15.68;57.37;96919.58;114074;1201;40135;-84
2021/09/10 00:34:12;;;;;;;9.70;4.40;;;;;;;15.68;57.38;96921.43;114168;1203;30421;-84
2021/09/10 00:36:44;;;;;;;8.70;4.70;;;;;;;15.66;57.38;96917.98;114119;1202;28826;-84
2021/09/10 00:39:17;;;;;;;6.80;5.00;;;;;;;15.64;57.45;96915.38;114275;1202;30135;-82
2021/09/10 00:41:48;;;;;;;8.90;4.30;;;;;;;15.60;57.37;96917.95;114130;1203;30936;-83
2021/09/10 00:44:19;;;;;;;7.70;4.50;;;;;;;15.61;57.38;96920.25;114238;1201;32408;-83
2021/09/10 00:46:51;;;;;;;7.70;4.30;;;;;;;15.58;57.33;96922.48;114097;1203;37295;-84
2021/09/10 00:49:21;;;;;;;7.10;4.50;;;;;;;15.55;57.37;96921.70;114188;1200;41279;-84
2021/09/10 00:51:52;;;;;;;7.30;4.00;;;;;;;15.52;57.40;96925.80;114173;1203;28608;-83
2021/09/10 00:54:23;;;;;;;7.50;4.40;;;;;;;15.49;57.33;96922.75;114216;1197;29097;-83
2021/09/10 00:56:54;;;;;;;7.10;4.20;;;;;;;15.51;57.22;96924.91;114106;1204;29331;-83
2021/09/10 00:59:25;;;;;;;7.80;4.40;;;;;;;15.49;57.34;96926.21;114119;1203;29956;-84
2021/09/10 01:01:56;;;;;;;9.50;4.60;;;;;;;15.45;57.23;96925.32;114240;1201;30875;-83
2021/09/10 01:04:27;;;;;;;7.70;4.50;;;;;;;15.46;57.32;96930.39;114160;1200;41554;-84
2021/09/10 01:06:58;;;;;;;7.70;4.90;;;;;;;15.45;57.45;96928.05;114195;1202;29524;-84
2021/09/10 01:09:31;;;;;;;9.30;4.90;;;;;;;15.42;57.47;96931.77;114305;1203;37740;-85
2021/09/10 01:12:03;;;;;;;7.00;4.30;;;;;;;15.37;57.51;96934.38;114184;1201;29832;-84
2021/09/10 01:14:35;;;;;;;10.20;4.80;;;;;;;15.39;57.59;96936.88;114226;1207;29124;-84
2021/09/10 01:17:06;;;;;;;7.20;4.40;;;;;;;15.38;57.57;96934.16;114183;1202;30976;-84
2021/09/10 01:19:38;;;;;;;7.50;4.80;;;;;;;15.37;57.53;96930.16;114187;1201;27584;-84
2021/09/10 01:22:09;;;;;;;6.40;4.10;;;;;;;15.37;57.53;96931.98;114183;1202;29010;-84
2021/09/10 01:25:01;;;;;;;7.00;4.40;;;;;;;15.37;57.27;96931.02;114185;1202;30597;-84
2021/09/10 01:27:33;;;;;;;8.20;4.80;;;;;;;15.38;57.38;96926.08;114209;1200;28265;-83
2021/09/10 01:30:04;;;;;;;7.60;4.30;;;;;;;15.35;57.39;96927.98;114079;1202;35893;-84
2021/09/10 01:32:36;;;;;;;7.20;4.10;;;;;;;15.35;57.28;96928.04;114153;1203;39339;-83
2021/09/10 01:35:09;;;;;;;6.10;4.20;;;;;;;15.36;57.34;96926.35;114210;1200;27327;-84
2021/09/10 01:37:41;;;;;;;7.90;4.10;;;;;;;15.34;57.33;96929.59;114154;1201;31250;-84
2021/09/10 01:40:13;;;;;;;8.10;4.50;;;;;;;15.33;57.30;96926.71;114293;1202;26849;-84
2021/09/10 01:42:44;;;;;;;7.80;4.70;;;;;;;15.33;57.35;96926.84;114273;1201;32703;-85
2021/09/10 01:45:17;;;;;;;8.30;4.60;;;;;;;15.31;57.23;96923.48;114252;1205;32895;-85
2021/09/10 01:47:47;;;;;;;8.80;4.80;;;;;;;15.31;57.22;96927.52;114240;1200;31821;-84
2021/09/10 01:50:21;;;;;;;7.40;4.30;;;;;;;15.31;57.20;96922.65;114221;1202;29743;-84
2021/09/10 01:52:52;;;;;;;6.10;3.80;;;;;;;15.31;57.23;96926.83;114081;1202;28816;-84
2021/09/10 01:55:23;;;;;;;6.10;4.00;;;;;;;15.30;57.14;96928.07;114225;1195;32874;-84
2021/09/10 01:57:55;;;;;;;8.10;4.50;;;;;;;15.29;57.12;96924.84;114101;1206;26490;-85
2021/09/10 02:00:25;;;;;;;7.00;4.70;;;;;;;15.30;57.10;96920.84;114185;1202;31209;-84
2021/09/10 02:02:56;;;;;;;9.80;4.50;;;;;;;15.27;57.20;96920.23;114208;1201;32568;-84
2021/09/10 02:05:27;;;;;;;8.50;4.80;;;;;;;15.24;57.14;96917.95;114169;1203;29635;-84
2021/09/10 02:07:58;;;;;;;6.10;3.90;;;;;;;15.26;57.03;96920.75;114244;1202;25106;-84
2021/09/10 02:10:29;;;;;;;8.80;4.90;;;;;;;15.27;56.95;96919.44;114204;1203;35540;-84
2021/09/10 02:13:00;;;;;;;9.80;4.80;;;;;;;15.26;56.96;96918.96;114188;1205;45107;-84
2021/09/10 02:15:31;;;;;;;10.50;4.70;;;;;;;15.26;56.85;96923.30;114112;1206;25677;-84
2021/09/10 02:18:02;;;;;;;8.50;4.70;;;;;;;15.23;56.95;96922.68;114250;1207;49675;-84
2021/09/10 02:20:33;;;;;;;7.40;4.60;;;;;;;15.19;56.94;96923.88;114172;1201;31811;-84
2021/09/10 02:23:04;;;;;;;5.40;3.90;;;;;;;15.19;56.90;96923.82;114212;1201;27530;-84
2021/09/10 02:25:35;;;;;;;6.40;4.70;;;;;;;15.19;56.92;96924.50;114246;1202;23294;-84
2021/09/10 02:28:06;;;;;;;8.10;4.50;;;;;;;15.18;56.89;96923.94;114200;1202;37339;-84
2021/09/10 02:30:36;;;;;;;8.20;4.50;;;;;;;15.18;56.88;96924.05;114254;1201;39503;-84
2021/09/10 02:33:07;;;;;;;6.60;4.30;;;;;;;15.17;56.94;96925.08;114082;1201;30124;-84
2021/09/10 02:35:38;;;;;;;7.30;4.80;;;;;;;15.14;56.96;96921.36;114000;1206;41951;-84
2021/09/10 02:38:09;;;;;;;8.80;4.40;;;;;;;15.12;56.93;96924.18;114208;1208;31253;-84
2021/09/10 02:40:40;;;;;;;8.50;4.40;;;;;;;15.09;57.01;96924.63;114240;1206;29904;-84
2021/09/10 02:43:11;;;;;;;6.90;4.30;;;;;;;15.06;57.05;96920.62;114074;1203;38048;-84
2021/09/10 02:45:42;;;;;;;8.10;4.40;;;;;;;15.06;57.04;96923.34;114199;1202;28936;-84
2021/09/10 02:48:13;;;;;;;7.10;4.40;;;;;;;15.06;57.04;96914.53;114286;1206;30446;-83
2021/09/10 02:50:44;;;;;;;8.90;4.60;;;;;;;15.07;56.91;96916.19;114010;1202;41659;-83
2021/09/10 02:53:15;;;;;;;5.90;4.20;;;;;;;15.08;56.86;96914.62;114294;1207;27794;-84
2021/09/10 02:55:45;;;;;;;8.80;4.90;;;;;;;15.07;56.86;96915.59;114172;1201;28745;-83
2021/09/10 02:58:16;;;;;;;8.80;4.80;;;;;;;15.07;56.88;96912.60;114176;1197;36912;-84
2021/09/10 03:00:47;;;;;;;7.80;3.90;;;;;;;15.07;56.92;96917.04;114239;1205;33788;-84
2021/09/10 03:03:18;;;;;;;8.60;4.40;;;;;;;15.03;56.88;96914.80;114227;1200;42298;-83
2021/09/10 03:05:49;;;;;;;6.30;4.00;;;;;;;15.01;56.88;96912.83;113994;1204;41407;-83
2021/09/10 03:08:20;;;;;;;7.00;4.30;;;;;;;15.01;57.03;96916.23;114101;1201;36928;-83
2021/09/10 03:10:52;;;;;;;4.80;3.40;;;;;;;15.00;56.94;96917.23;114230;1202;35758;-84
2021/09/10 03:13:22;;;;;;;6.40;4.20;;;;;;;14.99;56.90;96915.17;114029;1203;46332;-83
2021/09/10 03:15:53;;;;;;;8.40;4.70;;;;;;;15.01;56.88;96912.86;114061;1201;33644;-83
2021/09/10 03:18:24;;;;;;;7.10;4.50;;;;;;;15.04;56.86;96914.62;114257;1201;29008;-83
2021/09/10 03:20:55;;;;;;;8.80;4.50;;;;;;;15.03;56.72;96920.46;114250;1197;41627;-84
2021/09/10 03:23:25;;;;;;;6.70;4.70;;;;;;;15.02;56.73;96919.73;114199;1202;33162;-83
2021/09/10 03:25:56;;;;;;;7.60;4.30;;;;;;;15.01;56.73;96920.72;114140;1201;33970;-84
2021/09/10 03:28:27;;;;;;;7.20;4.40;;;;;;;14.98;56.92;96918.71;114145;1200;35289;-84
2021/09/10 03:30:58;;;;;;;7.10;3.90;;;;;;;14.97;56.79;96922.64;114225;1202;39407;-84
2021/09/10 03:33:29;;;;;;;6.30;4.30;;;;;;;14.96;56.83;96922.19;114150;1201;43332;-84
2021/09/10 03:36:00;;;;;;;8.70;4.20;;;;;;;14.93;56.95;96920.52;114115;1206;40923;-84
2021/09/10 03:38:31;;;;;;;7.20;3.90;;;;;;;14.89;57.03;96918.62;114124;1202;34104;-84
2021/09/10 03:41:02;;;;;;;7.20;4.50;;;;;;;14.82;57.35;96915.77;114100;1200;39257;-84
2021/09/10 03:43:35;;;;;;;6.00;4.40;;;;;;;14.71;57.53;96912.36;114143;1201;32111;-84
2021/09/10 03:46:06;;;;;;;7.50;4.60;;;;;;;14.65;57.75;96917.88;114288;1201;30142;-84
2021/09/10 03:48:37;;;;;;;7.90;4.30;;;;;;;14.61;57.96;96915.38;113967;1207;28730;-83
2021/09/10 03:51:08;;;;;;;9.10;4.10;;;;;;;14.54;57.99;96922.13;113929;1202;59673;-83
2021/09/10 03:53:39;;;;;;;7.50;4.20;;;;;;;14.50;58.15;96921.89;114025;1207;27609;-84
2021/09/10 03:56:10;;;;;;;6.70;4.10;;;;;;;14.46;58.33;96926.21;114125;1206;37356;-84
2021/09/10 03:58:41;;;;;;;7.30;4.30;;;;;;;14.43;58.33;96927.02;114200;1202;52725;-82
2021/09/10 04:01:12;;;;;;;7.40;4.40;;;;;;;14.42;58.56;96921.27;114091;1202;27562;-84
2021/09/10 04:03:43;;;;;;;7.80;4.30;;;;;;;14.34;58.78;96927.85;114231;1202;30719;-83
2021/09/10 04:06:14;;;;;;;5.80;4.10;;;;;;;14.27;58.94;96925.10;114153;1204;43803;-84
2021/09/10 04:08:45;;;;;;;5.70;3.90;;;;;;;14.27;58.89;96926.48;114198;1206;52271;-84
2021/09/10 04:11:16;;;;;;;8.10;4.10;;;;;;;14.30;58.98;96930.05;114275;1206;40694;-84
2021/09/10 04:13:47;;;;;;;7.00;4.00;;;;;;;14.30;58.98;96929.15;114239;1196;33871;-84
2021/09/10 04:16:18;;;;;;;7.10;4.60;;;;;;;14.32;58.98;96923.73;114178;1201;48999;-84
2021/09/10 04:18:48;;;;;;;8.00;4.50;;;;;;;14.34;58.93;96926.56;114160;1201;30389;-83
2021/09/10 04:21:20;;;;;;;6.60;4.20;;;;;;;14.43;58.87;96922.69;114105;1206;41709;-84
2021/09/10 04:23:51;;;;;;;8.00;4.50;;;;;;;14.63;58.64;96921.15;114213;1206;37177;-83
2021/09/10 04:26:22;;;;;;;7.50;4.00;;;;;;;14.91;58.18;96924.52;114207;1202;35434;-84
2021/09/10 04:28:52;;;;;;;7.10;4.30;;;;;;;15.16;57.88;96921.08;114144;1203;56081;-83
2021/09/10 04:31:23;;;;;;;6.70;4.30;;;;;;;15.41;57.52;96926.55;114097;1202;39483;-83
2021/09/10 04:33:54;;;;;;;6.00;3.90;;;;;;;15.69;56.86;96927.18;114057;1208;32316;-83
2021/09/10 04:36:25;;;;;;;5.30;3.60;;;;;;;16.04;56.34;96927.15;114199;1205;33120;-83
2021/09/10 04:38:56;;;;;;;7.00;4.40;;;;;;;16.46;55.88;96930.09;114197;1196;38053;-84
2021/09/10 04:41:28;;;;;;;6.70;4.00;;;;;;;16.89;55.03;96926.81;114178;1206;34163;-83
2021/09/10 04:43:59;;;;;;;5.60;3.90;;;;;;;17.22;54.18;96928.65;113885;1196;30939;-83
2021/09/10 04:46:30;;;;;;;7.70;4.00;;;;;;;17.58;53.75;96925.39;114120;1202;40203;-83
2021/09/10 04:49:01;;;;;;;6.30;3.70;;;;;;;17.89;52.79;96928.73;114229;1206;29180;-83
2021/09/10 04:51:32;;;;;;;7.00;4.40;;;;;;;18.14;51.58;96930.76;114206;1201;30485;-83
2021/09/10 04:54:03;;;;;;;6.50;3.60;;;;;;;18.25;51.34;96930.39;114133;1206;28839;-84
2021/09/10 04:56:35;;;;;;;7.50;4.30;;;;;;;18.61;51.13;96934.82;113965;1206;31777;-83
2021/09/10 04:59:06;;;;;;;6.40;3.90;;;;;;;19.20;50.63;96937.45;114196;1201;25612;-84
2021/09/10 05:01:37;;;;;;;5.30;3.90;;;;;;;19.72;49.35;96939.13;114212;1206;35845;-84
2021/09/10 05:04:08;;;;;;;6.50;4.50;;;;;;;20.12;48.47;96937.94;114153;1205;38623;-84
2021/09/10 05:06:39;;;;;;;6.90;4.40;;;;;;;20.50;47.22;96931.50;114018;1201;28323;-83
2021/09/10 05:09:09;;;;;;;5.70;3.90;;;;;;;20.59;46.47;96936.88;114109;1201;29114;-84
2021/09/10 05:11:41;;;;;;;5.30;3.90;;;;;;;20.90;45.90;96932.35;114191;1207;30744;-83
2021/09/10 05:14:13;;;;;;;5.50;3.90;;;;;;;21.24;45.61;96936.05;114097;1202;26160;-84
2021/09/10 05:16:44;;;;;;;7.40;4.10;;;;;;;21.72;44.56;96934.55;114305;1202;40384;-84
2021/09/10 05:19:16;;;;;;;4.80;3.90;;;;;;;21.95;43.86;96937.05;114322;1202;29868;-83
2021/09/10 05:21:47;;;;;;;7.00;3.70;;;;;;;22.23;43.75;96934.66;114198;1201;25519;-84
2021/09/10 05:24:18;;;;;;;5.30;3.70;;;;;;;22.58;42.79;96933.78;114173;1206;25918;-84
2021/09/10 05:26:49;;;;;;;7.00;3.90;;;;;;;22.97;42.58;96931.29;114232;1205;35761;-83
2021/09/10 05:29:20;;;;;;;5.50;3.70;;;;;;;23.63;41.76;96928.15;114132;1202;31557;-83
2021/09/10 05:31:51;;;;;;;7.20;3.60;;;;;;;24.01;41.39;96926.52;114189;1202;36442;-83
2021/09/10 05:34:22;;;;;;;6.60;4.10;;;;;;;24.56;40.39;96927.94;114072;1201;41954;-84
2021/09/10 05:36:53;;;;;;;4.70;3.50;;;;;;;24.98;39.56;96923.54;114020;1201;33377;-84
2021/09/10 05:39:24;;;;;;;7.10;3.40;;;;;;;25.30;39.71;96925.02;114158;1203;38551;-84
2021/09/10 05:41:55;;;;;;;4.10;3.00;;;;;;;25.95;38.51;96923.02;114178;1197;40821;-84
2021/09/10 05:44:26;;;;;;;4.90;3.60;;;;;;;26.33;38.15;96927.71;114142;1202;36208;-84
2021/09/10 05:46:57;;;;;;;4.20;3.80;;;;;;;26.71;37.20;96931.98;113942;1201;55867;-84
2021/09/10 05:49:28;;;;;;;7.10;3.80;;;;;;;27.17;36.59;96939.13;114003;1197;42325;-84
2021/09/10 05:51:59;;;;;;;5.00;3.60;;;;;;;27.65;35.50;96938.27;114130;1201;38142;-84
2021/09/10 05:54:30;;;;;;;5.00;3.40;;;;;;;27.61;34.60;96940.34;114193;1203;38840;-84
2021/09/10 05:57:00;;;;;;;5.60;3.60;;;;;;;27.93;34.71;96939.57;114101;1208;45885;-84
2021/09/10 05:59:32;;;;;;;4.50;3.50;;;;;;;28.39;33.93;96939.51;114108;1202;40948;-84
2021/09/10 06:02:02;;;;;;;5.20;3.50;;;;;;;28.50;33.22;96940.00;114144;1201;44235;-84
2021/09/10 06:04:33;;;;;;;5.90;3.60;;;;;;;28.57;32.72;96943.74;114050;1201;56594;-83
2021/09/10 06:07:04;;;;;;;6.60;3.40;;;;;;;28.81;32.55;96945.42;114201;1201;33638;-83
2021/09/10 06:09:35;;;;;;;4.50;3.70;;;;;;;29.30;31.88;96949.79;114081;1203;42732;-83
2021/09/10 06:12:07;;;;;;;4.20;3.40;;;;;;;29.39;31.52;96952.43;114154;1201;52950;-84
2021/09/10 06:14:38;;;;;;;4.40;3.60;;;;;;;29.42;30.53;96950.40;113914;1202;48784;-83
2021/09/10 06:17:09;;;;;;;4.40;3.30;;;;;;;29.05;30.68;96949.02;114027;1206;43733;-83
2021/09/10 06:19:40;;;;;;;5.00;4.00;;;;;;;28.94;31.28;96951.45;113910;1202;57610;-82
2021/09/10 06:22:12;;;;;;;4.30;3.60;;;;;;;29.16;29.92;96946.69;113989;1201;53242;-82
2021/09/10 06:24:43;;;;;;;3.90;3.10;;;;;;;29.20;30.30;96952.36;114180;1201;37489;-82
2021/09/10 06:27:14;;;;;;;4.60;3.10;;;;;;;29.11;29.87;96947.70;114280;1206;32757;-82
2021/09/10 06:29:45;;;;;;;7.70;3.60;;;;;;;28.88;29.96;96947.23;114224;1202;51015;-82
2021/09/10 06:32:16;;;;;;;5.20;4.00;;;;;;;29.06;30.68;96949.95;114226;1201;34747;-83
2021/09/10 06:34:47;;;;;;;8.70;6.10;;;;;;;29.49;30.56;96949.61;114140;1206;57092;-82
2021/09/10 06:37:18;;;;;;;7.70;5.20;;;;;;;29.96;29.96;96954.64;114173;1202;109562;-82
2021/09/10 06:39:49;;;;;;;10.40;4.90;;;;;;;29.98;29.44;96955.64;114023;1202;41769;-83
2021/09/10 06:42:20;;;;;;;9.20;5.50;;;;;;;29.81;29.77;96955.23;114148;1208;42907;-82
2021/09/10 06:44:54;;;;;;;9.70;5.20;;;;;;;30.26;30.46;96960.14;114173;1202;37424;-83
2021/09/10 06:47:25;;;;;;;5.30;3.90;;;;;;;31.04;29.41;96962.33;114213;1207;33223;-83
2021/09/10 06:49:56;;;;;;;5.30;3.80;;;;;;;31.48;28.85;96967.58;114077;1203;60288;-84
2021/09/10 06:52:27;;;;;;;8.40;5.70;;;;;;;31.95;28.73;96970.63;114227;1197;43052;-82
2021/09/10 06:54:57;;;;;;;11.40;7.00;;;;;;;32.52;28.27;96974.06;114227;1202;41578;-83
2021/09/10 06:57:28;;;;;;;7.70;5.30;;;;;;;32.86;27.41;96973.13;114174;1201;35630;-83
2021/09/10 06:59:59;;;;;;;14.70;9.80;;;;;;;33.06;26.97;96974.86;114267;1201;46073;-84
2021/09/10 07:02:30;;;;;;;13.20;8.40;;;;;;;33.39;27.17;96974.48;114117;1202;45787;-83
2021/09/10 07:05:01;;;;;;;16.90;10.70;;;;;;;33.82;26.70;96977.77;114148;1207;52951;-83
2021/09/10 07:07:32;;;;;;;20.90;13.00;;;;;;;33.88;26.36;96980.42;114030;1202;67977;-83
2021/09/10 07:10:03;;;;;;;21.90;14.70;;;;;;;34.05;26.05;96981.67;114083;1207;58875;-84
2021/09/10 07:12:34;;;;;;;21.30;14.10;;;;;;;33.84;25.79;96983.73;114096;1206;67418;-83
2021/09/10 07:15:06;;;;;;;20.00;12.70;;;;;;;34.04;25.71;96987.35;114076;1207;33883;-83
2021/09/10 07:17:36;;;;;;;20.20;12.30;;;;;;;34.32;25.98;96984.27;114092;1201;37747;-83
2021/09/10 07:20:10;;;;;;;28.40;18.90;;;;;;;35.03;25.59;96984.52;114119;1201;37034;-83
2021/09/10 07:22:41;;;;;;;18.80;12.50;;;;;;;34.61;24.56;96983.73;114237;1201;39988;-83
2021/09/10 07:25:12;;;;;;;18.50;13.60;;;;;;;34.03;24.56;96981.45;114143;1202;100295;-84
2021/09/10 07:27:43;;;;;;;14.90;10.50;;;;;;;34.22;25.24;96983.69;114213;1201;39491;-83
2021/09/10 07:30:15;;;;;;;12.00;8.00;;;;;;;34.61;24.35;96981.20;114229;1201;46336;-84
2021/09/10 07:32:46;;;;;;;15.60;11.30;;;;;;;34.61;24.31;96982.63;113985;1202;71473;-82
2021/09/10 07:35:17;;;;;;;16.80;12.30;;;;;;;35.01;25.04;96983.68;114174;1202;44915;-84
2021/09/10 07:37:49;;;;;;;13.70;9.50;;;;;;;35.78;23.94;96983.58;114326;1201;33237;-84
2021/09/10 07:40:20;;;;;;;7.90;5.20;;;;;;;35.41;23.19;96986.40;114157;1202;38057;-85
2021/09/10 07:42:51;;;;;;;6.80;5.00;;;;;;;34.80;23.68;96986.06;114120;1205;51556;-84
2021/09/10 07:45:22;;;;;;;7.50;4.00;;;;;;;34.74;23.57;96984.85;114196;1202;32817;-83
2021/09/10 07:47:53;;;;;;;6.20;3.60;;;;;;;34.75;24.18;96993.00;114003;1203;47148;-84
2021/09/10 07:50:23;;;;;;;5.90;2.90;;;;;;;35.26;24.32;96995.13;114185;1200;72844;-83
2021/09/10 07:52:54;;;;;;;4.10;2.90;;;;;;;35.72;23.92;96995.46;114202;1200;37539;-84
2021/09/10 07:55:25;;;;;;;5.60;3.10;;;;;;;35.69;23.39;96998.14;114104;1207;42652;-84
2021/09/10 07:57:56;;;;;;;4.30;3.00;;;;;;;35.43;23.51;97002.14;114138;1201;38937;-84
2021/09/10 08:00:27;;;;;;;5.30;3.20;;;;;;;35.18;23.53;97001.88;114101;1201;35233;-84
2021/09/10 08:02:58;;;;;;;7.10;2.90;;;;;;;34.61;23.06;97000.48;114093;1205;47864;-84
2021/09/10 08:05:29;;;;;;;3.30;2.40;;;;;;;33.65;24.15;97004.34;114169;1204;37046;-84
2021/09/10 08:08:00;;;;;;;5.20;2.40;;;;;;;32.93;23.72;97005.95;114058;1202;34672;-84
2021/09/10 08:10:31;;;;;;;7.20;2.90;;;;;;;32.16;24.85;97007.68;114147;1203;64080;-85
2021/09/10 08:13:02;;;;;;;3.20;2.20;;;;;;;31.71;25.51;97004.79;114215;1201;36205;-84
2021/09/10 08:15:33;;;;;;;7.90;3.00;;;;;;;31.28;25.49;97006.82;114205;1206;32426;-83
2021/09/10 08:18:04;;;;;;;6.00;2.80;;;;;;;30.97;26.02;97001.27;114052;1201;64757;-84
2021/09/10 08:20:35;;;;;;;6.20;3.40;;;;;;;30.99;26.44;97003.05;114007;1201;89204;-84
2021/09/10 08:23:06;;;;;;;4.20;2.90;;;;;;;30.49;26.24;97002.78;114210;1201;43103;-84
2021/09/10 08:25:37;;;;;;;3.60;2.60;;;;;;;29.61;26.76;97006.66;114214;1207;44102;-83
2021/09/10 08:28:08;;;;;;;6.30;3.00;;;;;;;29.25;27.44;97005.50;114149;1201;53818;-83
2021/09/10 08:30:39;;;;;;;3.80;2.60;;;;;;;29.02;27.60;97005.27;113913;1206;61670;-84
2021/09/10 08:33:13;;;;;;;5.20;2.80;;;;;;;28.60;28.07;97003.54;114018;1207;48123;-83
2021/09/10 08:35:44;;;;;;;4.40;3.00;;;;;;;28.46;28.36;97005.38;114100;1203;33900;-85
2021/09/10 08:38:15;;;;;;;4.50;2.60;;;;;;;28.45;28.77;97001.79;114187;1198;34649;-85
2021/09/10 08:40:47;;;;;;;5.30;2.60;;;;;;;28.17;28.77;97001.75;114145;1201;41900;-84
2021/09/10 08:43:20;;;;;;;5.50;2.80;;;;;;;27.95;28.93;96997.90;114193;1207;63948;-84
2021/09/10 08:45:51;;;;;;;4.30;2.90;;;;;;;27.83;29.30;96997.92;114144;1201;64424;-83
2021/09/10 08:48:24;;;;;;;3.90;2.60;;;;;;;27.70;29.33;97003.99;114097;1201;59470;-84
2021/09/10 08:50:55;;;;;;;6.30;3.00;;;;;;;27.39;29.50;97000.73;114203;1201;49666;-84
2021/09/10 08:53:27;;;;;;;3.90;2.60;;;;;;;27.08;30.00;96997.63;114090;1200;49515;-84
2021/09/10 08:55:57;;;;;;;5.80;2.70;;;;;;;26.88;30.24;96996.64;113996;1203;31865;-84
2021/09/10 08:58:28;;;;;;;5.60;2.60;;;;;;;26.72;30.66;96993.54;114059;1200;56085;-84
2021/09/10 09:01:02;;;;;;;5.20;2.90;;;;;;;26.38;30.55;96995.50;113819;1201;68788;-85
2021/09/10 09:03:34;;;;;;;6.10;3.00;;;;;;;26.13;31.08;96992.95;113891;1200;26062;-84
2021/09/10 09:06:06;;;;;;;4.70;3.20;;;;;;;25.97;31.45;96992.20;113887;1202;42059;-85
2021/09/10 09:08:37;;;;;;;8.70;3.90;;;;;;;25.71;31.56;96991.86;114103;1203;48382;-84
2021/09/10 09:11:09;;;;;;;4.00;2.80;;;;;;;25.42;32.33;96989.41;114053;1208;37124;-84
2021/09/10 09:13:44;;;;;;;7.30;3.20;;;;;;;25.29;32.65;96990.52;114077;1201;57600;-83
2021/09/10 09:16:18;;;;;;;5.40;3.00;;;;;;;25.25;33.24;96984.20;114060;1201;40923;-81
2021/09/10 09:18:51;;;;;;;8.70;3.10;;;;;;;25.05;32.75;96985.48;114049;1201;70041;-81
2021/09/10 09:21:28;;;;;;;8.10;2.90;;;;;;;24.80;33.08;96981.57;114132;1201;34525;-80
2021/09/10 09:24:16;;;;;;;4.60;2.90;;;;;;;24.48;33.13;96981.61;113879;1202;32807;-81
2021/09/10 09:26:49;;;;;;;4.50;2.50;;;;;;;24.31;33.04;96983.14;114283;1201;38321;-82
2021/09/10 09:29:21;;;;;;;4.20;2.90;;;;;;;24.39;33.25;96975.97;114099;1201;69203;-81
2021/09/10 09:32:01;;;;;;;4.30;2.80;;;;;;;24.43;32.80;96973.00;114093;1200;32269;-81
2021/09/10 09:34:49;;;;;;;6.70;3.10;;;;;;;24.37;32.52;96969.89;114162;1200;35638;-81
2021/09/10 09:37:27;;;;;;;5.80;2.60;;;;;;;24.44;33.27;96966.75;113992;1203;68154;-81
2021/09/10 09:40:00;;;;;;;4.60;2.90;;;;;;;24.35;33.15;96964.27;114065;1202;57428;-81
2021/09/10 09:42:33;;;;;;;4.90;2.90;;;;;;;24.37;32.43;96968.35;114098;1200;37033;-81
2021/09/10 09:45:17;;;;;;;4.60;3.00;;;;;;;24.35;33.02;96967.67;113940;1196;55113;-82
2021/09/10 09:47:48;;;;;;;6.40;3.20;;;;;;;24.43;33.19;96969.60;114166;1194;37290;-80
2021/09/10 09:50:21;;;;;;;4.30;2.70;;;;;;;24.43;32.87;96967.83;114100;1203;48973;-81
2021/09/10 09:52:53;;;;;;;5.10;3.00;;;;;;;24.41;32.97;96966.08;113855;1208;53671;-80
2021/09/10 09:55:25;;;;;;;5.60;3.30;;;;;;;24.39;33.24;96960.95;114163;1207;33373;-81
2021/09/10 09:57:57;;;;;;;5.30;3.30;;;;;;;24.52;33.43;96966.45;114180;1200;44901;-83
2021/09/10 10:00:30;;;;;;;4.60;3.00;;;;;;;24.47;33.21;96958.90;114075;1203;36945;-82
2021/09/10 10:03:04;;;;;;;7.00;3.70;;;;;;;24.40;34.04;96962.98;114175;1200;50793;-81
2021/09/10 10:05:45;;;;;;;5.10;3.20;;;;;;;24.45;33.86;96962.76;114114;1200;35204;-82
2021/09/10 10:08:23;;;;;;;5.80;3.00;;;;;;;24.48;33.36;96958.48;114078;1207;54221;-83
2021/09/10 10:10:59;;;;;;;6.10;3.00;;;;;;;24.56;33.59;96954.98;114133;1200;70676;-81
2021/09/10 10:13:33;;;;;;;5.30;2.80;;;;;;;24.74;34.26;96955.20;114227;1201;33106;-82
2021/09/10 10:16:05;;;;;;;4.60;3.20;;;;;;;24.87;34.76;96948.69;114300;1206;35684;-82
2021/09/10 10:18:41;;;;;;;3.30;2.60;;;;;;;25.03;34.59;96946.00;114256;1200;48719;-82
2021/09/10 10:21:14;;;;;;;7.90;3.60;;;;;;;25.01;34.64;96941.80;114141;1200;45550;-82
2021/09/10 10:24:08;;;;;;;5.00;3.30;;;;;;;24.90;34.65;96943.45;114202;1201;47182;-82
2021/09/10 10:26:42;;;;;;;5.40;3.10;;;;;;;24.88;34.92;96940.95;114125;1203;43897;-82
2021/09/10 10:29:18;;;;;;;6.70;3.00;;;;;;;24.84;34.54;96942.52;114206;1200;35626;-83
2021/09/10 10:32:08;;;;;;;5.40;2.90;;;;;;;24.63;33.77;96946.34;114181;1207;32543;-82
2021/09/10 10:35:29;;;;;;;4.80;3.00;;;;;;;24.47;34.16;96941.57;114106;1203;28859;-83
2021/09/10 10:38:09;;;;;;;4.30;2.70;;;;;;;24.71;35.16;96946.55;113666;1203;29228;-83
2021/09/10 10:40:44;;;;;;;3.60;2.80;;;;;;;24.89;34.77;96939.04;114159;1200;31236;-83
2021/09/10 10:43:29;;;;;;;4.30;2.90;;;;;;;24.84;34.43;96944.21;114177;1202;48159;-82
2021/09/10 10:46:11;;;;;;;4.30;3.00;;;;;;;24.56;34.02;96944.52;114217;1200;52849;-82
2021/09/10 10:49:02;;;;;;;5.20;3.10;;;;;;;24.29;34.37;96940.84;114141;1200;33645;-82
2021/09/10 10:51:52;;;;;;;6.10;3.60;;;;;;;24.28;34.92;96936.88;114064;1204;43355;-82
2021/09/10 10:54:29;;;;;;;;;;;;;;;24.28;34.75;96936.16;114124;1200;44472;-82
2021/09/10 10:57:03;;;;;;;4.90;3.20;;;;;;;24.29;35.55;96937.96;114058;1207;63103;-83
2021/09/10 10:59:38;;;;;;;6.00;3.70;;;;;;;24.26;35.65;96934.36;114049;1200;52875;-83
2021/09/10 11:02:32;;;;;;;8.50;3.70;;;;;;;24.12;35.87;96930.92;114123;1201;48149;-82
2021/09/10 11:05:07;;;;;;;5.20;3.10;;;;;;;24.11;35.83;96927.42;113993;1202;50304;-82
2021/09/10 11:07:38;;;;;;;7.90;3.50;;;;;;;24.04;35.66;96923.46;113941;1201;76266;-83
2021/09/10 11:10:11;;;;;;;5.50;3.20;;;;;;;24.12;36.44;96924.09;114091;1200;39535;-83
2021/09/10 11:12:44;;;;;;;5.80;2.90;;;;;;;24.32;36.99;96923.77;114350;1203;31800;-82
2021/09/10 11:15:24;;;;;;;6.10;3.70;;;;;;;24.48;36.41;96924.79;114055;1202;27625;-82
2021/09/10 11:17:57;;;;;;;4.90;3.30;;;;;;;24.52;36.39;96921.52;115652;1201;31432;-82
2021/09/10 11:20:31;;;;;;;5.60;3.90;;;;;;;24.67;36.71;96917.52;115505;1201;59580;-83
2021/09/10 11:23:02;;;;;;;8.30;3.80;;;;;;;24.82;37.17;96910.25;114686;1200;56489;-81
2021/09/10 11:25:34;;;;;;;6.00;3.30;;;;;;;24.92;37.35;96911.02;114081;1200;33981;-82
2021/09/10 11:28:14;;;;;;;6.70;4.00;;;;;;;24.92;37.26;96907.39;114147;1202;40536;-82
2021/09/10 11:30:48;;;;;;;6.20;3.50;;;;;;;24.83;38.13;96903.92;114227;1201;39936;-82
2021/09/10 11:33:20;;;;;;;5.90;4.30;;;;;;;24.86;37.86;96902.73;114140;1207;46050;-83
2021/09/10 11:35:54;;;;;;;5.90;3.90;;;;;;;24.71;37.08;96904.34;114016;1194;30135;-83
2021/09/10 11:38:28;;;;;;;7.40;4.00;;;;;;;24.48;37.67;96905.17;114201;1201;30764;-82
2021/09/10 11:41:02;;;;;;;6.40;4.40;;;;;;;24.49;37.28;96902.66;114020;1203;24708;-83
2021/09/10 11:43:35;;;;;;;6.90;4.20;;;;;;;24.47;37.45;96899.98;114194;1200;26039;-83
2021/09/10 11:46:09;;;;;;;6.30;4.10;;;;;;;24.42;37.64;96898.66;113733;1201;25143;-84
2021/09/10 11:48:46;;;;;;;6.10;3.90;;;;;;;24.43;37.54;96896.58;114276;1201;23501;-84